Map

Track Data

SID SEASON NUMBER BASIN SUBBASIN NAME ISO_TIME NATURE LAT LON WMO_WIND WMO_PRES WMO_AGENCY TRACK_TYPE DIST2LAND LANDFALL IFLAG USA_AGENCY USA_ATCF_ID USA_LAT USA_LON USA_RECORD USA_STATUS USA_WIND USA_PRES USA_SSHS USA_R34_NE USA_R34_SE USA_R34_SW USA_R34_NW USA_R50_NE USA_R50_SE USA_R50_SW USA_R50_NW USA_R64_NE USA_R64_SE USA_R64_SW USA_R64_NW USA_POCI USA_ROCI USA_RMW USA_EYE TOKYO_LAT TOKYO_LON TOKYO_GRADE TOKYO_WIND TOKYO_PRES TOKYO_R50_DIR TOKYO_R50_LONG TOKYO_R50_SHORT TOKYO_R30_DIR TOKYO_R30_LONG TOKYO_R30_SHORT TOKYO_LAND CMA_LAT CMA_LON CMA_CAT CMA_WIND CMA_PRES HKO_LAT HKO_LON HKO_CAT HKO_WIND HKO_PRES NEWDELHI_LAT NEWDELHI_LON NEWDELHI_GRADE NEWDELHI_WIND NEWDELHI_PRES NEWDELHI_CI NEWDELHI_DP NEWDELHI_POCI REUNION_LAT REUNION_LON REUNION_TYPE REUNION_WIND REUNION_PRES REUNION_TNUM REUNION_CI REUNION_RMW REUNION_R34_NE REUNION_R34_SE REUNION_R34_SW REUNION_R34_NW REUNION_R50_NE REUNION_R50_SE REUNION_R50_SW REUNION_R50_NW REUNION_R64_NE REUNION_R64_SE REUNION_R64_SW REUNION_R64_NW BOM_LAT BOM_LON BOM_TYPE BOM_WIND BOM_PRES BOM_TNUM BOM_CI BOM_RMW BOM_R34_NE BOM_R34_SE BOM_R34_SW BOM_R34_NW BOM_R50_NE BOM_R50_SE BOM_R50_SW BOM_R50_NW BOM_R64_NE BOM_R64_SE BOM_R64_SW BOM_R64_NW BOM_ROCI BOM_POCI BOM_EYE BOM_POS_METHOD BOM_PRES_METHOD NADI_LAT NADI_LON NADI_CAT NADI_WIND NADI_PRES WELLINGTON_LAT WELLINGTON_LON WELLINGTON_WIND WELLINGTON_PRES DS824_LAT DS824_LON DS824_STAGE DS824_WIND DS824_PRES TD9636_LAT TD9636_LON TD9636_STAGE TD9636_WIND TD9636_PRES TD9635_LAT TD9635_LON TD9635_WIND TD9635_PRES TD9635_ROCI NEUMANN_LAT NEUMANN_LON NEUMANN_CLASS NEUMANN_WIND NEUMANN_PRES MLC_LAT MLC_LON MLC_CLASS MLC_WIND MLC_PRES USA_GUST BOM_GUST BOM_GUST_PER REUNION_GUST REUNION_GUST_PER USA_SEAHGT USA_SEARAD_NE USA_SEARAD_SE USA_SEARAD_SW USA_SEARAD_NW STORM_SPEED STORM_DIR
1920356S13073 1921 57 SI MM NOT_NAMED 1920-12-21 06:00:00 NR -12.9000 72.7000 reunion main 1789 1789 _____O________ -1 -12.9000 72.7000 99 9.90000 1 239
1920356S13073 1921 57 SI MM NOT_NAMED 1920-12-21 09:00:00 NR -12.9202 72.6590 main 1789 1780 _____P________ -1 -12.9202 72.6590 99 1 242
1920356S13073 1921 57 SI MM NOT_NAMED 1920-12-21 12:00:00 NR -12.9457 72.6089 main 1780 1765 _____P________ -1 -12.9457 72.6089 99 1 242
1920356S13073 1921 57 SI MM NOT_NAMED 1920-12-21 15:00:00 NR -12.9816 72.5404 main 1765 1765 _____P________ -1 -12.9816 72.5404 99 2 241
1920356S13073 1921 57 SI MM NOT_NAMED 1920-12-21 18:00:00 NR -13.0332 72.4444 main 1755 1740 _____P________ -1 -13.0332 72.4444 99 3 241
1920356S13073 1921 57 SI MM NOT_NAMED 1920-12-21 21:00:00 NR -13.1057 72.3116 main 1740 1716 _____P________ -1 -13.1057 72.3116 99 3 241
1920356S13073 1921 57 SI MM NOT_NAMED 1920-12-22 00:00:00 NR -13.2042 72.1329 main 1716 1692 _____P________ -1 -13.2042 72.1329 99 5 240
1920356S13073 1921 57 SI MM NOT_NAMED 1920-12-22 03:00:00 NR -13.3340 71.8988 main 1692 1652 _____P________ -1 -13.3340 71.8988 99 6 240
1920356S13073 1921 57 SI MM NOT_NAMED 1920-12-22 06:00:00 NR -13.5000 71.6000 reunion main 1652 1613 _____O________ -1 -13.5000 71.6000 99 9.90000 8 240
1920356S13073 1921 57 SI MM NOT_NAMED 1920-12-22 09:00:00 NR -13.7058 71.2302 main 1604 1555 _____P________ -1 -13.7058 71.2302 99 9 240
1920356S13073 1921 57 SI MM NOT_NAMED 1920-12-22 12:00:00 NR -13.9493 70.7962 main 1555 1491 _____P________ -1 -13.9493 70.7962 99 10 240
1920356S13073 1921 57 SI MM NOT_NAMED 1920-12-22 15:00:00 NR -14.2267 70.3078 main 1491 1428 _____P________ -1 -14.2267 70.3078 99 12 239
1920356S13073 1921 57 SI MM NOT_NAMED 1920-12-22 18:00:00 NR -14.5345 69.7751 main 1428 1355 _____P________ -1 -14.5345 69.7751 99 12 239
1920356S13073 1921 57 SI MM NOT_NAMED 1920-12-22 21:00:00 NR -14.8690 69.2079 main 1350 1277 _____P________ -1 -14.8690 69.2079 99 13 238
1920356S13073 1921 57 SI MM NOT_NAMED 1920-12-23 00:00:00 NR -15.2270 68.6164 main 1277 1199 _____P________ -1 -15.2270 68.6164 99 14 238
1920356S13073 1921 57 SI MM NOT_NAMED 1920-12-23 03:00:00 NR -15.6051 68.0104 main 1199 1122 _____P________ -1 -15.6051 68.0104 99 14 237
1920356S13073 1921 57 SI MM NOT_NAMED 1920-12-23 06:00:00 NR -16.0000 67.4000 reunion main 1122 1045 _____O________ -1 -16.0000 67.4000 99 9.90000 15 236
1920356S13073 1921 57 SI MM NOT_NAMED 1920-12-23 09:00:00 NR -16.4260 66.7224 main 1035 953 _____P________ -1 -16.4260 66.7224 99 16 237
1920356S13073 1921 57 SI MM NOT_NAMED 1920-12-23 12:00:00 NR -16.8772 66.0180 main 944 857 _____P________ -1 -16.8772 66.0180 99 16 236
1920356S13073 1921 57 SI MM NOT_NAMED 1920-12-23 15:00:00 NR -17.3422 65.3107 main 857 777 _____P________ -1 -17.3422 65.3107 99 16 235
1920356S13073 1921 57 SI MM NOT_NAMED 1920-12-23 18:00:00 NR -17.8101 64.6250 main 767 691 _____P________ -1 -17.8101 64.6250 99 16 234
1920356S13073 1921 57 SI MM NOT_NAMED 1920-12-23 21:00:00 NR -18.2701 63.9856 main 687 613 _____P________ -1 -18.2701 63.9856 99 15 232
1920356S13073 1921 57 SI MM NOT_NAMED 1920-12-24 00:00:00 NR -18.7118 63.4179 main 613 560 _____P________ -1 -18.7118 63.4179 99 13 229
1920356S13073 1921 57 SI MM NOT_NAMED 1920-12-24 03:00:00 NR -19.1251 62.9474 main 550 509 _____P________ -1 -19.1251 62.9474 99 11 224
1920356S13073 1921 57 SI MM NOT_NAMED 1920-12-24 06:00:00 NR -19.5000 62.6000 reunion main 509 483 _____O________ -1 -19.5000 62.6000 99 9.90000 9 215
1920356S13073 1921 57 SI MM NOT_NAMED 1920-12-24 09:00:00 NR -19.8217 62.4333 main 483 480 _____P________ -1 -19.8217 62.4333 99 6 198
1920356S13073 1921 57 SI MM NOT_NAMED 1920-12-24 12:00:00 NR -20.1115 62.3884 main 480 479 _____P________ -1 -20.1115 62.3884 99 6 0
1920356S13073 1921 57 SI MM NOT_NAMED 1920-12-24 15:00:00 NR -20.3717 62.4463 main 479 479 _____P________ -1 -20.3717 62.4463 99 5 159
1920356S13073 1921 57 SI MM NOT_NAMED 1920-12-24 18:00:00 NR -20.6044 62.5877 main 501 501 _____P________ -1 -20.6044 62.5877 99 5 144
1920356S13073 1921 57 SI MM NOT_NAMED 1920-12-24 21:00:00 NR -20.8116 62.7934 main 523 523 _____P________ -1 -20.8116 62.7934 99 6 132
1920356S13073 1921 57 SI MM NOT_NAMED 1920-12-25 00:00:00 NR -20.9952 63.0438 main 546 546 _____P________ -1 -20.9952 63.0438 99 6 125
1920356S13073 1921 57 SI MM NOT_NAMED 1920-12-25 03:00:00 NR -21.1573 63.3193 main 580 580 _____P________ -1 -21.1573 63.3193 99 6 120
1920356S13073 1921 57 SI MM NOT_NAMED 1920-12-25 06:00:00 NR -21.3000 63.6000 reunion main 613 613 _____O________ -1 -21.3000 63.6000 99 9.90000 6 118
1920356S13073 1921 57 SI MM NOT_NAMED 1920-12-25 09:00:00 NR -21.4254 63.8697 main 645 645 _____P________ -1 -21.4254 63.8697 99 5 116
1920356S13073 1921 57 SI MM NOT_NAMED 1920-12-25 12:00:00 NR -21.5357 64.1266 main 667 667 _____P________ -1 -21.5357 64.1266 99 5 114
1920356S13073 1921 57 SI MM NOT_NAMED 1920-12-25 15:00:00 NR -21.6330 64.3724 main 700 700 _____P________ -1 -21.6330 64.3724 99 5 112
1920356S13073 1921 57 SI MM NOT_NAMED 1920-12-25 18:00:00 NR -21.7196 64.6089 main 722 722 _____P________ -1 -21.7196 64.6089 99 5 111
1920356S13073 1921 57 SI MM NOT_NAMED 1920-12-25 21:00:00 NR -21.7975 64.8381 main 745 745 _____P________ -1 -21.7975 64.8381 99 4 110
1920356S13073 1921 57 SI MM NOT_NAMED 1920-12-26 00:00:00 NR -21.8687 65.0618 main 777 777 _____P________ -1 -21.8687 65.0618 99 4 109
1920356S13073 1921 57 SI MM NOT_NAMED 1920-12-26 03:00:00 NR -21.9356 65.2817 main 798 798 _____P________ -1 -21.9356 65.2817 99 4 108
1920356S13073 1921 57 SI MM NOT_NAMED 1920-12-26 06:00:00 NR -22.0000 65.5000 reunion main 820 _____O________ -1 -22.0000 65.5000 99 9.90000 4 108

About IBTrACS Database

This database is a web-friendly format of International Best Track Archive for Climate Stewardship (IBTrACS), a global best track data archive curated by NOAA dating back to 1842.

Updated: 2021-11-26